createdAt,value
2022-10-19T00:01:18.183Z,83.30
2022-10-19T00:06:26.270Z,83.37
2022-10-19T00:08:58.358Z,83.33
2022-10-19T00:11:27.852Z,83.38
2022-10-19T00:13:57.344Z,83.42
2022-10-19T00:16:30.697Z,83.30
2022-10-19T00:19:01.551Z,83.52
2022-10-19T00:21:30.320Z,83.36
2022-10-19T00:23:58.616Z,83.30
2022-10-19T00:26:27.332Z,83.26
2022-10-19T00:28:56.467Z,83.31
2022-10-19T00:31:25.261Z,83.36
2022-10-19T00:33:55.904Z,83.25
2022-10-19T00:36:27.450Z,83.24
2022-10-19T00:38:56.920Z,83.14
2022-10-19T00:41:27.895Z,83.09
2022-10-19T00:44:06.484Z,83.03
2022-10-19T00:46:37.839Z,83.00
2022-10-19T00:49:22.435Z,83.16
2022-10-19T00:51:57.122Z,83.01
2022-10-19T00:54:26.802Z,83.06
2022-10-19T00:56:58.026Z,83.07
2022-10-19T00:59:28.493Z,82.99
2022-10-19T01:01:56.588Z,82.91
2022-10-19T01:04:26.998Z,82.96
2022-10-19T01:06:55.752Z,82.93
2022-10-19T01:09:23.766Z,83.02
2022-10-19T01:12:04.316Z,82.88
2022-10-19T01:14:41.119Z,83.15
2022-10-19T01:17:28.164Z,82.98
2022-10-19T01:20:08.431Z,83.12
2022-10-19T01:22:36.665Z,83.19
2022-10-19T01:25:31.956Z,83.25
2022-10-19T01:28:32.177Z,83.54
2022-10-19T01:31:35.658Z,83.75
2022-10-19T01:34:06.477Z,83.93
2022-10-19T01:36:46.690Z,83.96
2022-10-19T01:39:23.061Z,84.01
2022-10-19T01:42:03.432Z,84.24
2022-10-19T01:44:45.324Z,84.46
2022-10-19T01:47:22.292Z,84.55
2022-10-19T01:50:06.673Z,84.57
2022-10-19T01:52:37.250Z,84.67
2022-10-19T01:55:05.966Z,84.69
2022-10-19T01:57:41.515Z,84.78
2022-10-19T02:00:13.068Z,84.91
2022-10-19T02:02:45.841Z,84.81
2022-10-19T02:05:15.606Z,84.90
2022-10-19T02:07:49.720Z,84.92
2022-10-19T02:10:19.478Z,84.90
2022-10-19T02:12:48.574Z,84.87
2022-10-19T02:15:21.349Z,84.88
2022-10-19T02:17:53.377Z,84.71
2022-10-19T02:20:21.617Z,84.65
2022-10-19T02:22:49.938Z,84.67
2022-10-19T02:25:18.257Z,84.58
2022-10-19T02:27:46.167Z,84.51
2022-10-19T02:30:17.391Z,84.41
2022-10-19T02:32:45.672Z,84.44
2022-10-19T02:35:14.939Z,84.34
2022-10-19T02:37:43.389Z,84.46
2022-10-19T02:40:12.690Z,84.35
2022-10-19T02:42:51.378Z,84.44
2022-10-19T02:45:27.627Z,84.45
2022-10-19T02:48:01.199Z,84.33
2022-10-19T02:50:29.530Z,84.37
2022-10-19T02:53:00.581Z,84.32
2022-10-19T02:55:30.259Z,84.32
2022-10-19T02:57:59.105Z,84.27
2022-10-19T03:00:27.211Z,84.07
2022-10-19T03:02:55.269Z,84.25
2022-10-19T03:05:23.482Z,84.05
2022-10-19T03:07:52.116Z,84.08
2022-10-19T03:10:20.009Z,84.16
2022-10-19T03:12:48.014Z,84.30
2022-10-19T03:15:17.398Z,84.12
2022-10-19T03:17:45.392Z,84.23
2022-10-19T03:20:13.851Z,84.22
2022-10-19T03:22:41.798Z,84.19
2022-10-19T03:25:09.889Z,84.31
2022-10-19T03:27:37.826Z,84.32
2022-10-19T03:30:06.399Z,84.39
2022-10-19T03:32:34.635Z,84.42
2022-10-19T03:35:02.592Z,84.67
2022-10-19T03:37:30.485Z,84.47
2022-10-19T03:39:58.703Z,84.62
2022-10-19T03:42:27.099Z,84.76
2022-10-19T03:44:55.350Z,84.75
2022-10-19T03:47:23.474Z,84.64
2022-10-19T03:49:52.050Z,84.68
2022-10-19T03:52:20.209Z,84.51
2022-10-19T03:54:52.345Z,84.48
2022-10-19T03:57:23.806Z,84.54
2022-10-19T03:59:51.625Z,84.50
2022-10-19T04:02:20.340Z,84.54
2022-10-19T04:04:48.380Z,84.53
2022-10-19T04:07:16.229Z,84.46
2022-10-19T04:09:44.479Z,84.26
2022-10-19T04:12:12.449Z,84.31
2022-10-19T04:14:56.361Z,84.20
2022-10-19T04:17:26.387Z,84.15
2022-10-19T04:19:54.220Z,84.10
2022-10-19T04:22:22.354Z,84.02
2022-10-19T04:24:50.605Z,83.96
2022-10-19T04:27:18.668Z,83.97
2022-10-19T04:29:46.590Z,84.02
2022-10-19T04:32:14.754Z,83.94
2022-10-19T04:34:42.581Z,83.71
2022-10-19T04:37:10.514Z,83.50
2022-10-19T04:39:41.297Z,83.51
2022-10-19T04:42:09.167Z,83.30
2022-10-19T04:44:36.953Z,83.01
2022-10-19T04:47:05.541Z,82.90
2022-10-19T04:49:33.463Z,82.99
2022-10-19T04:52:01.495Z,83.02
2022-10-19T04:54:29.951Z,82.76
2022-10-19T04:56:58.459Z,82.84
2022-10-19T04:59:26.362Z,82.68
2022-10-19T05:01:54.567Z,82.39
2022-10-19T05:04:22.509Z,82.30
2022-10-19T05:06:50.410Z,82.26
2022-10-19T05:09:18.690Z,82.11
2022-10-19T05:11:50.368Z,82.11
2022-10-19T05:14:18.243Z,82.15
2022-10-19T05:16:47.000Z,82.11
2022-10-19T05:19:15.038Z,82.15
2022-10-19T05:21:43.294Z,82.19
2022-10-19T05:24:13.513Z,82.03
2022-10-19T05:26:41.440Z,81.98
2022-10-19T05:29:14.299Z,81.89
2022-10-19T05:31:42.322Z,81.72
2022-10-19T05:34:10.524Z,81.68
2022-10-19T05:36:41.102Z,81.60
2022-10-19T05:39:13.545Z,81.65
2022-10-19T05:41:46.880Z,81.77
2022-10-19T05:44:22.803Z,81.61
2022-10-19T05:46:52.372Z,81.72
2022-10-19T05:49:22.067Z,81.69
2022-10-19T05:51:50.754Z,81.75
2022-10-19T05:54:21.786Z,81.60
2022-10-19T05:56:52.008Z,81.64
2022-10-19T05:59:21.276Z,81.66
2022-10-19T06:01:49.625Z,81.59
2022-10-19T06:06:51.204Z,81.71
2022-10-19T06:09:19.495Z,81.90
2022-10-19T06:11:48.639Z,81.84
2022-10-19T06:14:16.844Z,81.77
2022-10-19T06:16:46.260Z,81.99
2022-10-19T06:19:14.497Z,82.02
2022-10-19T06:21:46.015Z,82.15
2022-10-19T06:24:14.805Z,82.07
2022-10-19T06:26:42.950Z,82.03
2022-10-19T06:29:11.356Z,82.01
2022-10-19T06:31:39.480Z,81.98
2022-10-19T06:34:07.491Z,81.99
2022-10-19T06:36:35.949Z,81.88
2022-10-19T06:39:04.812Z,82.04
2022-10-19T06:41:39.215Z,82.13
2022-10-19T06:44:19.522Z,82.09
2022-10-19T06:46:47.581Z,81.97
2022-10-19T06:49:15.645Z,82.05
2022-10-19T06:51:43.966Z,82.15
2022-10-19T06:54:12.005Z,82.17
2022-10-19T06:56:39.946Z,82.06
2022-10-19T06:59:08.108Z,81.97
2022-10-19T07:01:35.948Z,82.16
2022-10-19T07:04:04.613Z,81.98
2022-10-19T07:06:32.776Z,82.05
2022-10-19T07:09:00.852Z,81.94
2022-10-19T07:11:28.933Z,81.94
2022-10-19T07:13:57.364Z,81.79
2022-10-19T07:16:25.187Z,81.78
2022-10-19T07:18:53.761Z,81.73
2022-10-19T07:21:24.095Z,81.79
2022-10-19T07:23:52.473Z,81.80
2022-10-19T07:26:27.206Z,81.82
2022-10-19T07:28:57.673Z,82.00
2022-10-19T07:31:28.400Z,82.01
2022-10-19T07:33:59.525Z,82.08
2022-10-19T07:36:29.160Z,81.86
2022-10-19T07:38:57.809Z,82.04
2022-10-19T07:41:27.079Z,81.71
2022-10-19T07:43:55.515Z,81.60
2022-10-19T07:46:26.358Z,81.64
2022-10-19T07:48:54.453Z,81.69
2022-10-19T07:51:22.937Z,81.58
2022-10-19T07:53:51.420Z,81.54
2022-10-19T07:56:25.178Z,81.44
2022-10-19T07:58:55.768Z,81.33
2022-10-19T08:01:27.837Z,81.42
2022-10-19T08:04:49.031Z,81.70
2022-10-19T08:06:46.539Z,81.89
2022-10-19T08:09:33.306Z,82.02
2022-10-19T08:12:03.785Z,82.21
2022-10-19T08:14:32.150Z,82.23
2022-10-19T08:17:00.782Z,82.34
2022-10-19T08:19:30.089Z,82.22
2022-10-19T08:21:58.758Z,82.32
2022-10-19T08:24:26.710Z,82.54
2022-10-19T08:26:54.996Z,82.47
2022-10-19T08:29:23.816Z,82.62
2022-10-19T08:31:53.698Z,82.66
2022-10-19T08:34:22.598Z,82.78
2022-10-19T08:36:50.723Z,83.01
2022-10-19T08:39:18.714Z,83.06
2022-10-19T08:41:56.325Z,83.31
2022-10-19T08:44:49.533Z,83.24
2022-10-19T08:47:38.453Z,83.31
2022-10-19T08:50:24.815Z,83.56
2022-10-19T08:53:19.611Z,83.76
2022-10-19T08:56:22.165Z,83.81
2022-10-19T08:59:26.846Z,83.99
2022-10-19T09:02:10.070Z,83.99
2022-10-19T09:04:42.240Z,84.18
2022-10-19T09:07:13.248Z,84.26
2022-10-19T09:09:49.599Z,84.46
2022-10-19T09:12:24.974Z,84.58
2022-10-19T09:15:07.608Z,84.67
2022-10-19T09:17:35.840Z,84.38
2022-10-19T09:20:26.714Z,84.30
2022-10-19T09:23:04.426Z,84.23
2022-10-19T09:25:37.646Z,84.08
2022-10-19T09:28:36.480Z,84.20
2022-10-19T09:31:39.563Z,84.46
2022-10-19T09:34:36.463Z,84.53
2022-10-19T09:37:04.791Z,84.52
2022-10-19T09:39:33.040Z,84.49
2022-10-19T09:42:33.888Z,84.59
2022-10-19T09:45:16.461Z,84.50
2022-10-19T09:47:48.253Z,84.39
2022-10-19T09:50:25.105Z,83.97
2022-10-19T09:52:58.717Z,83.95
2022-10-19T09:55:33.925Z,83.76
2022-10-19T09:58:10.029Z,83.76
2022-10-19T10:00:42.825Z,83.49
2022-10-19T10:03:29.766Z,83.27
2022-10-19T10:06:04.137Z,83.22
2022-10-19T10:08:37.153Z,83.43
2022-10-19T10:11:22.889Z,83.56
2022-10-19T10:13:54.224Z,83.05
2022-10-19T10:16:24.894Z,82.97
2022-10-19T10:18:59.251Z,82.32
2022-10-19T10:21:51.285Z,81.93
2022-10-19T10:24:22.116Z,80.96
2022-10-19T10:27:11.798Z,80.36
2022-10-19T10:29:39.961Z,80.23
2022-10-19T10:32:13.686Z,80.47
2022-10-19T10:35:02.048Z,80.59
2022-10-19T10:37:46.570Z,80.70
2022-10-19T10:40:26.460Z,81.22
2022-10-19T10:42:57.891Z,81.58
2022-10-19T10:45:31.196Z,82.11
2022-10-19T10:48:14.946Z,82.53
2022-10-19T10:50:43.882Z,82.74
2022-10-19T10:53:44.681Z,82.97
2022-10-19T10:56:26.079Z,82.88
2022-10-19T10:59:13.115Z,82.96
2022-10-19T11:01:50.342Z,83.29
2022-10-19T11:04:26.330Z,83.24
2022-10-19T11:07:04.385Z,82.79
2022-10-19T11:09:39.463Z,82.56
2022-10-19T11:12:14.294Z,82.26
2022-10-19T11:15:03.171Z,82.10
2022-10-19T11:17:36.831Z,82.01
2022-10-19T11:20:08.336Z,82.18
2022-10-19T11:22:43.349Z,82.47
2022-10-19T11:25:26.850Z,82.62
2022-10-19T11:28:11.748Z,82.77
2022-10-19T11:30:51.837Z,82.88
2022-10-19T11:36:29.125Z,82.32
2022-10-19T11:39:35.930Z,81.81
2022-10-19T11:42:03.966Z,81.57
2022-10-19T11:44:45.925Z,80.46
2022-10-19T11:47:17.306Z,80.25
2022-10-19T11:50:04.360Z,79.78
2022-10-19T11:52:56.618Z,79.16
2022-10-19T11:55:48.017Z,78.29
2022-10-19T11:58:43.993Z,77.65
2022-10-19T12:01:25.076Z,77.47
2022-10-19T12:04:02.750Z,77.28
2022-10-19T12:06:52.664Z,76.13
2022-10-19T12:09:43.021Z,75.47
2022-10-19T12:12:47.447Z,75.00
2022-10-19T12:15:35.307Z,73.89
2022-10-19T12:18:22.193Z,73.46
2022-10-19T12:20:57.423Z,73.54
2022-10-19T12:23:34.100Z,73.83
2022-10-19T12:26:05.959Z,73.66
2022-10-19T12:28:49.536Z,73.69
2022-10-19T12:31:18.736Z,73.91
2022-10-19T12:34:18.264Z,73.53
2022-10-19T12:37:13.818Z,73.14
2022-10-19T12:40:07.356Z,72.17
2022-10-19T12:43:02.956Z,71.63
2022-10-19T12:45:45.522Z,71.08
2022-10-19T12:48:14.664Z,70.90
2022-10-19T12:50:48.742Z,71.15
2022-10-19T12:53:28.362Z,70.95
2022-10-19T12:56:20.222Z,70.87
2022-10-19T12:58:59.844Z,70.74
2022-10-19T13:01:34.083Z,70.30
2022-10-19T13:04:19.163Z,70.11
2022-10-19T13:06:50.747Z,70.58
2022-10-19T13:09:34.461Z,70.35
2022-10-19T13:12:19.415Z,70.24
2022-10-19T13:14:59.499Z,70.33
2022-10-19T13:17:54.784Z,70.36
2022-10-19T13:20:25.123Z,69.96
2022-10-19T13:23:05.518Z,69.62
2022-10-19T13:25:40.467Z,69.14
2022-10-19T13:28:11.264Z,69.37
2022-10-19T13:31:04.963Z,69.64
2022-10-19T13:33:44.991Z,69.07
2022-10-19T13:36:14.130Z,68.88
2022-10-19T13:38:59.140Z,68.15
2022-10-19T13:41:34.286Z,68.36
2022-10-19T13:44:05.289Z,67.52
2022-10-19T13:46:45.799Z,67.27
2022-10-19T13:49:36.439Z,67.23
2022-10-19T13:52:27.065Z,65.83
2022-10-19T13:55:29.513Z,66.18
2022-10-19T13:58:03.866Z,66.34
2022-10-19T14:01:05.381Z,66.17
2022-10-19T14:04:03.717Z,65.93
2022-10-19T14:06:52.487Z,66.11
2022-10-19T14:09:26.489Z,66.02
2022-10-19T14:12:06.974Z,66.12
2022-10-19T14:14:44.082Z,65.90
2022-10-19T14:19:55.486Z,65.95
2022-10-19T14:22:35.328Z,65.54
2022-10-19T14:25:17.832Z,64.44
2022-10-19T14:27:48.259Z,64.49
2022-10-19T14:30:29.364Z,64.18
2022-10-19T14:33:02.171Z,63.90
2022-10-19T14:35:39.862Z,63.77
2022-10-19T14:38:21.764Z,63.69
2022-10-19T14:40:49.871Z,63.83
2022-10-19T14:43:22.378Z,64.23
2022-10-19T14:46:07.216Z,64.06
2022-10-19T14:48:47.675Z,64.09
2022-10-19T14:51:47.561Z,64.27
2022-10-19T14:54:41.453Z,64.93
2022-10-19T14:57:26.267Z,64.74
2022-10-19T15:00:01.565Z,64.87
2022-10-19T15:02:40.720Z,64.89
2022-10-19T15:05:20.709Z,64.82
2022-10-19T15:07:50.276Z,64.83
2022-10-19T15:10:32.352Z,65.24
2022-10-19T15:13:08.130Z,65.42
2022-10-19T15:15:36.557Z,65.81
2022-10-19T15:18:06.514Z,65.99
2022-10-19T15:20:44.165Z,66.08
2022-10-19T15:23:39.935Z,66.29
2022-10-19T15:26:17.522Z,66.43
2022-10-19T15:28:46.700Z,66.86
2022-10-19T15:31:18.524Z,66.64
2022-10-19T15:34:01.030Z,66.64
2022-10-19T15:36:32.954Z,67.03
2022-10-19T15:39:18.073Z,67.18
2022-10-19T15:41:56.740Z,67.35
2022-10-19T15:44:44.387Z,67.42
2022-10-19T15:47:15.351Z,67.50
2022-10-19T15:49:43.189Z,67.71
2022-10-19T15:52:32.869Z,67.90
2022-10-19T15:55:01.399Z,67.90
2022-10-19T15:57:32.981Z,67.94
2022-10-19T16:00:12.524Z,67.72
2022-10-19T16:02:41.004Z,67.64
2022-10-19T16:05:10.216Z,68.01
2022-10-19T16:07:40.574Z,67.80
2022-10-19T16:10:16.638Z,67.72
2022-10-19T16:12:45.028Z,67.55
2022-10-19T16:15:22.165Z,67.60
2022-10-19T16:17:52.812Z,67.39
2022-10-19T16:20:21.909Z,67.41
2022-10-19T16:22:50.112Z,67.42
2022-10-19T16:25:18.359Z,67.26
2022-10-19T16:27:46.535Z,67.32
2022-10-19T16:30:14.634Z,67.14
2022-10-19T16:35:15.751Z,67.33
2022-10-19T16:37:44.387Z,67.37
2022-10-19T16:40:12.345Z,67.29
2022-10-19T16:42:40.527Z,67.26
2022-10-19T16:45:09.782Z,67.14
2022-10-19T16:47:37.641Z,67.16
2022-10-19T16:50:06.695Z,67.17
2022-10-19T16:52:35.107Z,67.14
2022-10-19T16:55:03.614Z,67.23
2022-10-19T16:57:31.799Z,67.26
2022-10-19T17:00:00.139Z,67.12
2022-10-19T17:02:29.306Z,67.29
2022-10-19T17:05:00.135Z,67.54
2022-10-19T17:07:28.194Z,67.52
2022-10-19T17:09:56.474Z,67.51
2022-10-19T17:12:24.675Z,67.62
2022-10-19T17:14:52.625Z,67.47
2022-10-19T17:17:21.058Z,67.62
2022-10-19T17:19:51.968Z,67.75
2022-10-19T17:22:23.389Z,67.77
2022-10-19T17:24:51.431Z,67.96
2022-10-19T17:27:19.411Z,68.13
2022-10-19T17:29:48.075Z,68.31
2022-10-19T17:32:17.159Z,68.40
2022-10-19T17:34:45.260Z,68.50
2022-10-19T17:37:13.592Z,68.47
2022-10-19T17:39:41.602Z,68.58
2022-10-19T17:42:09.948Z,68.75
2022-10-19T17:44:38.128Z,68.84
2022-10-19T17:47:06.386Z,68.78
2022-10-19T17:49:38.035Z,68.93
2022-10-19T17:52:06.023Z,69.06
2022-10-19T17:54:43.511Z,69.06
2022-10-19T17:57:22.157Z,69.21
2022-10-19T17:59:52.853Z,69.13
2022-10-19T18:02:21.186Z,69.21
2022-10-19T18:04:50.182Z,69.20
2022-10-19T18:07:19.202Z,69.16
2022-10-19T18:09:47.187Z,69.13
2022-10-19T18:12:15.320Z,69.48
2022-10-19T18:14:45.221Z,69.60
2022-10-19T18:17:13.123Z,69.55
2022-10-19T18:19:41.382Z,69.63
2022-10-19T18:22:09.909Z,69.57
2022-10-19T18:24:38.519Z,69.63
2022-10-19T18:27:06.958Z,69.83
2022-10-19T18:29:35.055Z,69.82
2022-10-19T18:32:03.258Z,69.83
2022-10-19T18:34:32.677Z,69.88
2022-10-19T18:37:00.773Z,70.07
2022-10-19T18:39:28.616Z,70.55
2022-10-19T18:41:56.670Z,70.49
2022-10-19T18:44:27.040Z,70.58
2022-10-19T18:46:57.828Z,70.45
2022-10-19T18:49:26.126Z,70.47
2022-10-19T18:51:55.715Z,70.80
2022-10-19T18:54:26.550Z,70.92
2022-10-19T18:56:55.677Z,70.99
2022-10-19T18:59:23.934Z,70.79
2022-10-19T19:01:52.706Z,70.74
2022-10-19T19:04:21.088Z,70.60
2022-10-19T19:06:49.279Z,70.70
2022-10-19T19:09:19.144Z,70.71
2022-10-19T19:11:50.220Z,70.78
2022-10-19T19:14:21.280Z,70.75
2022-10-19T19:16:49.845Z,70.64
2022-10-19T19:19:19.274Z,70.70
2022-10-19T19:21:49.130Z,70.61
2022-10-19T19:24:22.030Z,70.80
2022-10-19T19:26:55.659Z,70.83
2022-10-19T19:29:27.222Z,70.67
2022-10-19T19:31:55.291Z,70.69
2022-10-19T19:34:23.362Z,70.77
2022-10-19T19:36:51.475Z,70.71
2022-10-19T19:39:21.423Z,70.88
2022-10-19T19:41:50.549Z,71.04
2022-10-19T19:44:19.144Z,71.03
2022-10-19T19:46:47.625Z,71.24
2022-10-19T19:49:15.566Z,71.18
2022-10-19T19:51:43.557Z,71.34
2022-10-19T19:54:12.022Z,71.35
2022-10-19T19:56:42.204Z,71.24
2022-10-19T19:59:12.415Z,71.26
2022-10-19T20:01:40.943Z,71.09
2022-10-19T20:04:10.408Z,71.22
2022-10-19T20:06:39.959Z,71.24
2022-10-19T20:09:10.255Z,71.23
2022-10-19T20:11:42.340Z,71.39
2022-10-19T20:14:12.644Z,71.46
2022-10-19T20:16:40.955Z,71.46
2022-10-19T20:19:14.102Z,71.36
2022-10-19T20:21:44.918Z,71.43
2022-10-19T20:24:12.863Z,71.49
2022-10-19T20:26:40.959Z,71.59
2022-10-19T20:29:08.918Z,71.63
2022-10-19T20:31:40.520Z,71.45
2022-10-19T20:34:14.191Z,71.43
2022-10-19T20:36:43.424Z,71.57
2022-10-19T20:39:11.463Z,71.72
2022-10-19T20:41:39.837Z,71.66
2022-10-19T20:44:07.845Z,71.70
2022-10-19T20:46:37.250Z,71.63
2022-10-19T20:49:05.454Z,71.66
2022-10-19T20:51:37.067Z,71.71
2022-10-19T20:54:10.051Z,71.53
2022-10-19T20:56:40.489Z,71.57
2022-10-19T20:59:13.109Z,71.66
2022-10-19T21:01:43.501Z,71.79
2022-10-19T21:04:16.097Z,71.91
2022-10-19T21:06:46.843Z,71.90
2022-10-19T21:09:21.298Z,72.06
2022-10-19T21:11:51.439Z,71.87
2022-10-19T21:14:25.468Z,71.86
2022-10-19T21:16:58.243Z,71.95
2022-10-19T21:19:28.958Z,71.98
2022-10-19T21:22:02.573Z,71.92
2022-10-19T21:24:34.670Z,71.97
2022-10-19T21:27:06.638Z,72.08
2022-10-19T21:29:35.638Z,72.10
2022-10-19T21:32:03.691Z,72.26
2022-10-19T21:34:32.326Z,72.42
2022-10-19T21:37:00.444Z,72.22
2022-10-19T21:39:28.827Z,72.31
2022-10-19T21:41:57.179Z,72.30
2022-10-19T21:44:25.269Z,72.23
2022-10-19T21:46:53.642Z,72.31
2022-10-19T21:49:21.609Z,72.40
2022-10-19T21:51:53.819Z,72.42
2022-10-19T21:54:28.318Z,72.44
2022-10-19T21:56:57.937Z,72.32
2022-10-19T21:59:26.111Z,72.68
2022-10-19T22:01:55.315Z,72.66
2022-10-19T22:04:23.457Z,72.52
2022-10-19T22:06:51.607Z,72.45
2022-10-19T22:09:23.239Z,72.71
2022-10-19T22:11:51.256Z,72.72
2022-10-19T22:14:19.255Z,72.61
2022-10-19T22:16:47.488Z,72.88
2022-10-19T22:19:15.428Z,72.72
2022-10-19T22:21:43.609Z,72.99
2022-10-19T22:24:14.902Z,72.80
2022-10-19T22:26:46.414Z,72.89
2022-10-19T22:29:14.509Z,72.83
2022-10-19T22:31:42.837Z,72.76
2022-10-19T22:34:15.121Z,72.71
2022-10-19T22:36:44.562Z,72.66
2022-10-19T22:39:12.909Z,72.95
2022-10-19T22:42:38.244Z,73.02
2022-10-19T22:45:25.622Z,73.20
2022-10-19T22:47:53.646Z,73.14
2022-10-19T22:50:21.401Z,73.09
2022-10-19T22:52:49.487Z,73.17
2022-10-19T22:55:17.480Z,72.99
2022-10-19T22:57:45.246Z,72.96
2022-10-19T23:00:14.032Z,72.81
2022-10-19T23:02:41.985Z,72.85
2022-10-19T23:05:09.802Z,72.82
2022-10-19T23:07:38.361Z,73.03
2022-10-19T23:10:07.202Z,73.23
2022-10-19T23:12:35.315Z,73.36
2022-10-19T23:15:03.487Z,73.57
2022-10-19T23:17:32.108Z,73.70
2022-10-19T23:19:59.901Z,73.71
2022-10-19T23:22:27.857Z,73.73
2022-10-19T23:24:55.698Z,73.66
2022-10-19T23:27:23.567Z,73.64
2022-10-19T23:29:51.572Z,73.94
2022-10-19T23:32:19.656Z,74.15
2022-10-19T23:34:48.490Z,74.22
2022-10-19T23:37:16.752Z,74.26
2022-10-19T23:39:44.688Z,74.45
2022-10-19T23:42:12.467Z,74.82
2022-10-19T23:44:40.509Z,74.64
2022-10-19T23:47:08.420Z,74.74
2022-10-19T23:49:36.353Z,74.59
2022-10-19T23:52:04.881Z,74.71
2022-10-19T23:54:32.941Z,74.58
2022-10-19T23:57:01.096Z,74.82
2022-10-19T23:59:29.189Z,74.98
